sensor_id;sensor_type;location;lat;lon;timestamp;P1;durP1;ratioP1;P2;durP2;ratioP2
9124;SDS011;4597;48.730;9.114;2022-09-09T00:00:20;1.60;;;1.40;;
9124;SDS011;4597;48.730;9.114;2022-09-09T00:02:49;3.37;;;1.37;;
9124;SDS011;4597;48.730;9.114;2022-09-09T00:05:51;1.83;;;1.57;;
9124;SDS011;4597;48.730;9.114;2022-09-09T00:08:51;2.77;;;2.03;;
9124;SDS011;4597;48.730;9.114;2022-09-09T00:11:44;2.83;;;1.83;;
9124;SDS011;4597;48.730;9.114;2022-09-09T00:14:18;2.10;;;1.90;;
9124;SDS011;4597;48.730;9.114;2022-09-09T00:16:58;2.53;;;1.90;;
9124;SDS011;4597;48.730;9.114;2022-09-09T00:19:44;2.30;;;1.90;;
9124;SDS011;4597;48.730;9.114;2022-09-09T00:22:25;2.67;;;2.07;;
9124;SDS011;4597;48.730;9.114;2022-09-09T00:24:56;2.73;;;1.90;;
9124;SDS011;4597;48.730;9.114;2022-09-09T00:27:44;2.97;;;1.90;;
9124;SDS011;4597;48.730;9.114;2022-09-09T00:30:24;3.63;;;2.07;;
9124;SDS011;4597;48.730;9.114;2022-09-09T00:32:58;2.20;;;1.97;;
9124;SDS011;4597;48.730;9.114;2022-09-09T00:38:04;2.87;;;1.77;;
9124;SDS011;4597;48.730;9.114;2022-09-09T00:43:31;3.27;;;1.50;;
9124;SDS011;4597;48.730;9.114;2022-09-09T00:49:03;1.70;;;1.60;;
9124;SDS011;4597;48.730;9.114;2022-09-09T00:56:46;2.80;;;1.80;;
9124;SDS011;4597;48.730;9.114;2022-09-09T00:59:28;2.07;;;1.80;;
9124;SDS011;4597;48.730;9.114;2022-09-09T01:02:21;2.57;;;1.60;;
9124;SDS011;4597;48.730;9.114;2022-09-09T01:05:05;2.13;;;1.40;;
9124;SDS011;4597;48.730;9.114;2022-09-09T01:07:37;2.67;;;1.73;;
9124;SDS011;4597;48.730;9.114;2022-09-09T01:10:11;1.87;;;1.40;;
9124;SDS011;4597;48.730;9.114;2022-09-09T01:13:00;2.87;;;1.40;;
9124;SDS011;4597;48.730;9.114;2022-09-09T01:15:32;1.87;;;1.60;;
9124;SDS011;4597;48.730;9.114;2022-09-09T01:18:00;1.50;;;1.40;;
9124;SDS011;4597;48.730;9.114;2022-09-09T01:20:53;3.57;;;1.67;;
9124;SDS011;4597;48.730;9.114;2022-09-09T01:23:37;5.00;;;1.77;;
9124;SDS011;4597;48.730;9.114;2022-09-09T01:28:47;2.47;;;1.67;;
9124;SDS011;4597;48.730;9.114;2022-09-09T01:31:19;3.57;;;1.93;;
9124;SDS011;4597;48.730;9.114;2022-09-09T01:33:47;3.73;;;1.80;;
9124;SDS011;4597;48.730;9.114;2022-09-09T01:36:16;2.63;;;1.63;;
9124;SDS011;4597;48.730;9.114;2022-09-09T01:38:48;2.40;;;1.67;;
9124;SDS011;4597;48.730;9.114;2022-09-09T01:41:13;1.73;;;1.63;;
9124;SDS011;4597;48.730;9.114;2022-09-09T01:43:39;3.53;;;1.63;;
9124;SDS011;4597;48.730;9.114;2022-09-09T01:46:04;3.30;;;1.73;;
9124;SDS011;4597;48.730;9.114;2022-09-09T01:48:31;3.20;;;1.63;;
9124;SDS011;4597;48.730;9.114;2022-09-09T01:50:57;4.70;;;1.93;;
9124;SDS011;4597;48.730;9.114;2022-09-09T01:53:23;3.67;;;1.60;;
9124;SDS011;4597;48.730;9.114;2022-09-09T02:01:06;2.43;;;1.70;;
9124;SDS011;4597;48.730;9.114;2022-09-09T02:03:44;4.50;;;2.00;;
9124;SDS011;4597;48.730;9.114;2022-09-09T02:06:27;3.67;;;1.67;;
9124;SDS011;4597;48.730;9.114;2022-09-09T02:09:04;1.80;;;1.43;;
9124;SDS011;4597;48.730;9.114;2022-09-09T02:11:32;1.80;;;1.53;;
9124;SDS011;4597;48.730;9.114;2022-09-09T02:14:00;2.03;;;1.60;;
9124;SDS011;4597;48.730;9.114;2022-09-09T02:16:42;1.83;;;1.67;;
9124;SDS011;4597;48.730;9.114;2022-09-09T02:21:50;1.50;;;1.40;;
9124;SDS011;4597;48.730;9.114;2022-09-09T02:24:18;2.77;;;1.47;;
9124;SDS011;4597;48.730;9.114;2022-09-09T02:26:44;2.50;;;1.30;;
9124;SDS011;4597;48.730;9.114;2022-09-09T02:29:20;4.70;;;2.37;;
9124;SDS011;4597;48.730;9.114;2022-09-09T02:31:48;2.63;;;1.30;;
9124;SDS011;4597;48.730;9.114;2022-09-09T02:34:15;2.90;;;1.40;;
9124;SDS011;4597;48.730;9.114;2022-09-09T02:36:45;1.57;;;1.30;;
9124;SDS011;4597;48.730;9.114;2022-09-09T02:39:12;2.53;;;1.30;;
9124;SDS011;4597;48.730;9.114;2022-09-09T02:41:39;2.43;;;1.67;;
9124;SDS011;4597;48.730;9.114;2022-09-09T02:44:10;1.47;;;1.37;;
9124;SDS011;4597;48.730;9.114;2022-09-09T02:47:04;2.50;;;1.27;;
9124;SDS011;4597;48.730;9.114;2022-09-09T02:52:15;9.87;;;1.60;;
9124;SDS011;4597;48.730;9.114;2022-09-09T02:54:45;1.63;;;1.10;;
9124;SDS011;4597;48.730;9.114;2022-09-09T02:57:22;2.30;;;1.10;;
9124;SDS011;4597;48.730;9.114;2022-09-09T02:59:50;3.30;;;1.30;;
9124;SDS011;4597;48.730;9.114;2022-09-09T03:02:17;4.50;;;1.20;;
9124;SDS011;4597;48.730;9.114;2022-09-09T03:04:43;1.20;;;1.10;;
9124;SDS011;4597;48.730;9.114;2022-09-09T03:07:09;3.17;;;1.03;;
9124;SDS011;4597;48.730;9.114;2022-09-09T03:09:35;1.40;;;1.30;;
9124;SDS011;4597;48.730;9.114;2022-09-09T03:12:01;1.50;;;1.30;;
9124;SDS011;4597;48.730;9.114;2022-09-09T03:14:29;1.47;;;1.10;;
9124;SDS011;4597;48.730;9.114;2022-09-09T03:16:55;3.90;;;1.60;;
9124;SDS011;4597;48.730;9.114;2022-09-09T03:19:22;2.17;;;1.07;;
9124;SDS011;4597;48.730;9.114;2022-09-09T03:21:48;1.13;;;1.10;;
9124;SDS011;4597;48.730;9.114;2022-09-09T03:24:14;1.73;;;1.17;;
9124;SDS011;4597;48.730;9.114;2022-09-09T03:26:40;2.20;;;1.20;;
9124;SDS011;4597;48.730;9.114;2022-09-09T03:29:07;0.97;;;0.83;;
9124;SDS011;4597;48.730;9.114;2022-09-09T03:31:33;4.77;;;1.10;;
9124;SDS011;4597;48.730;9.114;2022-09-09T03:34:00;2.00;;;1.30;;
9124;SDS011;4597;48.730;9.114;2022-09-09T03:36:26;2.53;;;1.10;;
9124;SDS011;4597;48.730;9.114;2022-09-09T03:38:53;1.43;;;1.10;;
9124;SDS011;4597;48.730;9.114;2022-09-09T03:41:19;1.63;;;1.10;;
9124;SDS011;4597;48.730;9.114;2022-09-09T03:43:47;1.23;;;0.90;;
9124;SDS011;4597;48.730;9.114;2022-09-09T03:46:12;2.53;;;1.03;;
9124;SDS011;4597;48.730;9.114;2022-09-09T03:48:38;1.50;;;1.10;;
9124;SDS011;4597;48.730;9.114;2022-09-09T03:51:03;1.03;;;0.93;;
9124;SDS011;4597;48.730;9.114;2022-09-09T03:53:29;1.80;;;1.20;;
9124;SDS011;4597;48.730;9.114;2022-09-09T03:55:55;1.10;;;0.90;;
9124;SDS011;4597;48.730;9.114;2022-09-09T03:58:24;1.37;;;1.00;;
9124;SDS011;4597;48.730;9.114;2022-09-09T04:03:24;1.10;;;1.03;;
9124;SDS011;4597;48.730;9.114;2022-09-09T04:05:51;1.70;;;1.00;;
9124;SDS011;4597;48.730;9.114;2022-09-09T04:08:17;2.17;;;1.23;;
9124;SDS011;4597;48.730;9.114;2022-09-09T04:10:47;2.30;;;1.20;;
9124;SDS011;4597;48.730;9.114;2022-09-09T04:13:14;2.93;;;1.17;;
9124;SDS011;4597;48.730;9.114;2022-09-09T04:15:42;1.10;;;0.90;;
9124;SDS011;4597;48.730;9.114;2022-09-09T04:18:18;1.10;;;1.00;;
9124;SDS011;4597;48.730;9.114;2022-09-09T04:20:48;2.97;;;1.13;;
9124;SDS011;4597;48.730;9.114;2022-09-09T04:23:15;2.27;;;0.83;;
9124;SDS011;4597;48.730;9.114;2022-09-09T04:25:47;1.87;;;1.17;;
9124;SDS011;4597;48.730;9.114;2022-09-09T04:28:15;2.87;;;1.10;;
9124;SDS011;4597;48.730;9.114;2022-09-09T04:30:41;3.90;;;1.17;;
9124;SDS011;4597;48.730;9.114;2022-09-09T04:33:07;2.47;;;1.00;;
9124;SDS011;4597;48.730;9.114;2022-09-09T04:35:34;1.73;;;0.80;;
9124;SDS011;4597;48.730;9.114;2022-09-09T04:38:00;1.63;;;1.00;;
9124;SDS011;4597;48.730;9.114;2022-09-09T04:40:27;1.80;;;0.90;;
9124;SDS011;4597;48.730;9.114;2022-09-09T04:42:54;2.60;;;1.33;;
9124;SDS011;4597;48.730;9.114;2022-09-09T04:45:20;1.20;;;1.10;;
9124;SDS011;4597;48.730;9.114;2022-09-09T04:47:45;1.17;;;1.17;;
9124;SDS011;4597;48.730;9.114;2022-09-09T04:50:11;1.03;;;0.97;;
9124;SDS011;4597;48.730;9.114;2022-09-09T04:52:37;1.47;;;0.90;;
9124;SDS011;4597;48.730;9.114;2022-09-09T04:55:03;0.80;;;0.80;;
9124;SDS011;4597;48.730;9.114;2022-09-09T04:57:29;1.17;;;1.00;;
9124;SDS011;4597;48.730;9.114;2022-09-09T04:59:56;0.80;;;0.80;;
9124;SDS011;4597;48.730;9.114;2022-09-09T05:02:22;1.10;;;0.83;;
9124;SDS011;4597;48.730;9.114;2022-09-09T05:04:48;1.57;;;0.80;;
9124;SDS011;4597;48.730;9.114;2022-09-09T05:07:14;1.00;;;1.00;;
9124;SDS011;4597;48.730;9.114;2022-09-09T05:09:40;0.83;;;0.83;;
9124;SDS011;4597;48.730;9.114;2022-09-09T05:12:05;0.80;;;0.80;;
9124;SDS011;4597;48.730;9.114;2022-09-09T05:14:31;1.93;;;1.00;;
9124;SDS011;4597;48.730;9.114;2022-09-09T05:16:57;1.60;;;1.00;;
9124;SDS011;4597;48.730;9.114;2022-09-09T05:19:23;1.10;;;1.00;;
9124;SDS011;4597;48.730;9.114;2022-09-09T05:21:48;1.20;;;1.10;;
9124;SDS011;4597;48.730;9.114;2022-09-09T05:24:14;2.00;;;1.07;;
9124;SDS011;4597;48.730;9.114;2022-09-09T05:26:40;2.23;;;0.80;;
9124;SDS011;4597;48.730;9.114;2022-09-09T05:29:06;1.90;;;0.87;;
9124;SDS011;4597;48.730;9.114;2022-09-09T05:31:33;3.50;;;1.10;;
9124;SDS011;4597;48.730;9.114;2022-09-09T05:33:58;1.93;;;1.00;;
9124;SDS011;4597;48.730;9.114;2022-09-09T05:36:24;3.40;;;0.83;;
9124;SDS011;4597;48.730;9.114;2022-09-09T05:38:51;1.17;;;1.00;;
9124;SDS011;4597;48.730;9.114;2022-09-09T05:41:18;1.10;;;1.00;;
9124;SDS011;4597;48.730;9.114;2022-09-09T05:43:45;1.30;;;1.20;;
9124;SDS011;4597;48.730;9.114;2022-09-09T05:46:12;1.57;;;1.13;;
9124;SDS011;4597;48.730;9.114;2022-09-09T05:48:40;2.77;;;1.10;;
9124;SDS011;4597;48.730;9.114;2022-09-09T05:51:08;2.60;;;1.13;;
9124;SDS011;4597;48.730;9.114;2022-09-09T05:53:37;2.47;;;1.00;;
9124;SDS011;4597;48.730;9.114;2022-09-09T05:58:31;1.33;;;1.03;;
9124;SDS011;4597;48.730;9.114;2022-09-09T06:01:31;1.20;;;0.97;;
9124;SDS011;4597;48.730;9.114;2022-09-09T06:03:50;0.90;;;0.90;;
9124;SDS011;4597;48.730;9.114;2022-09-09T06:06:18;1.00;;;1.00;;
9124;SDS011;4597;48.730;9.114;2022-09-09T06:08:50;1.73;;;1.00;;
9124;SDS011;4597;48.730;9.114;2022-09-09T06:11:23;1.30;;;1.07;;
9124;SDS011;4597;48.730;9.114;2022-09-09T06:13:56;1.07;;;0.90;;
9124;SDS011;4597;48.730;9.114;2022-09-09T06:16:22;2.80;;;0.87;;
9124;SDS011;4597;48.730;9.114;2022-09-09T06:18:49;1.87;;;1.10;;
9124;SDS011;4597;48.730;9.114;2022-09-09T06:21:19;2.23;;;1.17;;
9124;SDS011;4597;48.730;9.114;2022-09-09T06:23:47;3.07;;;1.20;;
9124;SDS011;4597;48.730;9.114;2022-09-09T06:26:14;1.37;;;0.93;;
9124;SDS011;4597;48.730;9.114;2022-09-09T06:28:40;1.50;;;1.10;;
9124;SDS011;4597;48.730;9.114;2022-09-09T06:31:09;1.67;;;1.00;;
9124;SDS011;4597;48.730;9.114;2022-09-09T06:33:36;1.03;;;0.93;;
9124;SDS011;4597;48.730;9.114;2022-09-09T06:36:06;0.93;;;0.87;;
9124;SDS011;4597;48.730;9.114;2022-09-09T06:38:35;1.27;;;1.10;;
9124;SDS011;4597;48.730;9.114;2022-09-09T06:41:01;1.23;;;0.90;;
9124;SDS011;4597;48.730;9.114;2022-09-09T06:43:27;1.10;;;1.10;;
9124;SDS011;4597;48.730;9.114;2022-09-09T06:46:06;2.10;;;1.00;;
9124;SDS011;4597;48.730;9.114;2022-09-09T06:48:39;2.20;;;1.30;;
9124;SDS011;4597;48.730;9.114;2022-09-09T06:51:19;1.20;;;1.10;;
9124;SDS011;4597;48.730;9.114;2022-09-09T06:53:52;2.13;;;0.87;;
9124;SDS011;4597;48.730;9.114;2022-09-09T06:56:20;2.07;;;1.33;;
9124;SDS011;4597;48.730;9.114;2022-09-09T06:58:54;2.07;;;1.07;;
9124;SDS011;4597;48.730;9.114;2022-09-09T07:01:25;1.30;;;1.20;;
9124;SDS011;4597;48.730;9.114;2022-09-09T07:03:54;1.77;;;1.00;;
9124;SDS011;4597;48.730;9.114;2022-09-09T07:08:55;2.90;;;1.10;;
9124;SDS011;4597;48.730;9.114;2022-09-09T07:11:23;2.40;;;1.30;;
9124;SDS011;4597;48.730;9.114;2022-09-09T07:13:51;2.40;;;1.37;;
9124;SDS011;4597;48.730;9.114;2022-09-09T07:16:18;1.40;;;1.10;;
9124;SDS011;4597;48.730;9.114;2022-09-09T07:18:45;2.77;;;1.20;;
9124;SDS011;4597;48.730;9.114;2022-09-09T07:21:12;1.27;;;1.10;;
9124;SDS011;4597;48.730;9.114;2022-09-09T07:23:39;3.67;;;1.30;;
9124;SDS011;4597;48.730;9.114;2022-09-09T07:26:09;2.90;;;1.13;;
9124;SDS011;4597;48.730;9.114;2022-09-09T07:28:39;1.17;;;1.07;;
9124;SDS011;4597;48.730;9.114;2022-09-09T07:31:06;2.77;;;1.20;;
9124;SDS011;4597;48.730;9.114;2022-09-09T07:33:38;2.30;;;1.20;;
9124;SDS011;4597;48.730;9.114;2022-09-09T07:38:39;3.70;;;1.43;;
9124;SDS011;4597;48.730;9.114;2022-09-09T07:41:09;2.00;;;1.07;;
9124;SDS011;4597;48.730;9.114;2022-09-09T07:43:41;2.63;;;1.13;;
9124;SDS011;4597;48.730;9.114;2022-09-09T07:46:07;1.73;;;1.07;;
9124;SDS011;4597;48.730;9.114;2022-09-09T07:48:34;1.40;;;1.30;;
9124;SDS011;4597;48.730;9.114;2022-09-09T07:51:19;1.20;;;1.10;;
9124;SDS011;4597;48.730;9.114;2022-09-09T07:53:47;2.07;;;1.20;;
9124;SDS011;4597;48.730;9.114;2022-09-09T07:56:14;2.30;;;1.40;;
9124;SDS011;4597;48.730;9.114;2022-09-09T07:58:48;1.40;;;1.30;;
9124;SDS011;4597;48.730;9.114;2022-09-09T08:01:22;2.00;;;1.53;;
9124;SDS011;4597;48.730;9.114;2022-09-09T08:03:54;1.60;;;1.23;;
9124;SDS011;4597;48.730;9.114;2022-09-09T08:06:24;1.23;;;1.10;;
9124;SDS011;4597;48.730;9.114;2022-09-09T08:08:51;1.73;;;1.60;;
9124;SDS011;4597;48.730;9.114;2022-09-09T08:11:17;1.73;;;1.17;;
9124;SDS011;4597;48.730;9.114;2022-09-09T08:13:43;1.63;;;1.10;;
9124;SDS011;4597;48.730;9.114;2022-09-09T08:16:11;1.27;;;1.10;;
9124;SDS011;4597;48.730;9.114;2022-09-09T08:18:39;1.70;;;1.10;;
9124;SDS011;4597;48.730;9.114;2022-09-09T08:21:05;1.60;;;1.03;;
9124;SDS011;4597;48.730;9.114;2022-09-09T08:23:33;1.90;;;1.03;;
9124;SDS011;4597;48.730;9.114;2022-09-09T08:26:03;2.17;;;1.27;;
9124;SDS011;4597;48.730;9.114;2022-09-09T08:28:37;1.77;;;1.37;;
9124;SDS011;4597;48.730;9.114;2022-09-09T08:31:07;1.47;;;1.30;;
9124;SDS011;4597;48.730;9.114;2022-09-09T08:33:38;3.17;;;1.20;;
9124;SDS011;4597;48.730;9.114;2022-09-09T08:36:04;4.17;;;1.47;;
9124;SDS011;4597;48.730;9.114;2022-09-09T08:38:31;2.20;;;1.40;;
9124;SDS011;4597;48.730;9.114;2022-09-09T08:41:08;3.13;;;1.20;;
9124;SDS011;4597;48.730;9.114;2022-09-09T08:43:58;3.77;;;1.20;;
9124;SDS011;4597;48.730;9.114;2022-09-09T08:55:50;1.83;;;1.07;;
9124;SDS011;4597;48.730;9.114;2022-09-09T08:58:33;3.80;;;1.37;;
9124;SDS011;4597;48.730;9.114;2022-09-09T09:06:44;1.43;;;1.33;;
9124;SDS011;4597;48.730;9.114;2022-09-09T09:09:49;1.60;;;1.13;;
9124;SDS011;4597;48.730;9.114;2022-09-09T09:12:25;2.47;;;1.50;;
9124;SDS011;4597;48.730;9.114;2022-09-09T09:14:54;3.33;;;1.03;;
9124;SDS011;4597;48.730;9.114;2022-09-09T09:17:24;2.70;;;1.23;;
9124;SDS011;4597;48.730;9.114;2022-09-09T09:19:52;2.77;;;1.30;;
9124;SDS011;4597;48.730;9.114;2022-09-09T09:25:03;2.70;;;1.37;;
9124;SDS011;4597;48.730;9.114;2022-09-09T09:27:34;2.50;;;1.10;;
9124;SDS011;4597;48.730;9.114;2022-09-09T09:32:38;2.50;;;1.20;;
9124;SDS011;4597;48.730;9.114;2022-09-09T09:35:09;3.27;;;1.10;;
9124;SDS011;4597;48.730;9.114;2022-09-09T09:37:37;1.77;;;1.40;;
9124;SDS011;4597;48.730;9.114;2022-09-09T09:40:09;2.20;;;1.40;;
9124;SDS011;4597;48.730;9.114;2022-09-09T09:43:00;10.17;;;1.90;;
9124;SDS011;4597;48.730;9.114;2022-09-09T09:45:28;7.50;;;1.83;;
9124;SDS011;4597;48.730;9.114;2022-09-09T09:48:03;6.93;;;1.73;;
9124;SDS011;4597;48.730;9.114;2022-09-09T09:50:30;2.53;;;1.40;;
9124;SDS011;4597;48.730;9.114;2022-09-09T09:52:59;3.17;;;1.67;;
9124;SDS011;4597;48.730;9.114;2022-09-09T09:55:30;3.43;;;1.30;;
9124;SDS011;4597;48.730;9.114;2022-09-09T09:58:03;2.27;;;1.50;;
9124;SDS011;4597;48.730;9.114;2022-09-09T10:00:30;2.73;;;1.30;;
9124;SDS011;4597;48.730;9.114;2022-09-09T10:02:57;4.67;;;1.63;;
9124;SDS011;4597;48.730;9.114;2022-09-09T10:05:26;7.63;;;1.90;;
9124;SDS011;4597;48.730;9.114;2022-09-09T10:08:27;3.37;;;1.37;;
9124;SDS011;4597;48.730;9.114;2022-09-09T10:19:05;4.10;;;1.30;;
9124;SDS011;4597;48.730;9.114;2022-09-09T10:24:34;2.10;;;0.90;;
9124;SDS011;4597;48.730;9.114;2022-09-09T10:32:41;2.70;;;1.57;;
9124;SDS011;4597;48.730;9.114;2022-09-09T10:35:33;2.97;;;1.47;;
9124;SDS011;4597;48.730;9.114;2022-09-09T10:38:16;1.80;;;1.50;;
9124;SDS011;4597;48.730;9.114;2022-09-09T10:49:45;2.20;;;0.97;;
9124;SDS011;4597;48.730;9.114;2022-09-09T10:52:05;3.27;;;1.00;;
9124;SDS011;4597;48.730;9.114;2022-09-09T10:55:14;2.60;;;1.13;;
9124;SDS011;4597;48.730;9.114;2022-09-09T11:00:24;1.07;;;0.70;;
9124;SDS011;4597;48.730;9.114;2022-09-09T11:03:05;2.17;;;0.90;;
9124;SDS011;4597;48.730;9.114;2022-09-09T11:08:09;1.60;;;1.00;;
9124;SDS011;4597;48.730;9.114;2022-09-09T11:13:22;1.47;;;0.90;;
9124;SDS011;4597;48.730;9.114;2022-09-09T11:16:10;1.43;;;1.10;;
9124;SDS011;4597;48.730;9.114;2022-09-09T11:19:00;1.73;;;1.17;;
9124;SDS011;4597;48.730;9.114;2022-09-09T11:21:46;3.57;;;1.37;;
9124;SDS011;4597;48.730;9.114;2022-09-09T11:24:59;2.30;;;1.17;;
9124;SDS011;4597;48.730;9.114;2022-09-09T11:27:14;1.97;;;1.13;;
9124;SDS011;4597;48.730;9.114;2022-09-09T11:35:33;2.17;;;1.00;;
9124;SDS011;4597;48.730;9.114;2022-09-09T11:41:03;1.37;;;0.80;;
9124;SDS011;4597;48.730;9.114;2022-09-09T11:46:11;0.70;;;0.70;;
9124;SDS011;4597;48.730;9.114;2022-09-09T11:48:41;1.70;;;0.70;;
9124;SDS011;4597;48.730;9.114;2022-09-09T11:53:49;1.40;;;0.80;;
9124;SDS011;4597;48.730;9.114;2022-09-09T11:56:23;2.37;;;0.80;;
9124;SDS011;4597;48.730;9.114;2022-09-09T11:59:04;0.67;;;0.67;;
9124;SDS011;4597;48.730;9.114;2022-09-09T12:01:41;0.60;;;0.60;;
9124;SDS011;4597;48.730;9.114;2022-09-09T12:06:48;2.63;;;1.00;;
9124;SDS011;4597;48.730;9.114;2022-09-09T12:12:20;1.00;;;0.60;;
9124;SDS011;4597;48.730;9.114;2022-09-09T12:14:55;0.60;;;0.60;;
9124;SDS011;4597;48.730;9.114;2022-09-09T12:17:26;0.70;;;0.63;;
9124;SDS011;4597;48.730;9.114;2022-09-09T12:20:14;0.97;;;0.63;;
9124;SDS011;4597;48.730;9.114;2022-09-09T12:28:25;0.90;;;0.87;;
9124;SDS011;4597;48.730;9.114;2022-09-09T12:31:17;2.10;;;1.20;;
9124;SDS011;4597;48.730;9.114;2022-09-09T12:33:55;2.47;;;1.10;;
9124;SDS011;4597;48.730;9.114;2022-09-09T12:36:34;1.40;;;0.90;;
9124;SDS011;4597;48.730;9.114;2022-09-09T12:39:09;1.70;;;0.80;;
9124;SDS011;4597;48.730;9.114;2022-09-09T12:41:41;1.77;;;1.10;;
9124;SDS011;4597;48.730;9.114;2022-09-09T12:44:21;1.63;;;0.73;;
9124;SDS011;4597;48.730;9.114;2022-09-09T12:46:48;1.17;;;0.90;;
9124;SDS011;4597;48.730;9.114;2022-09-09T12:49:31;1.70;;;0.83;;
9124;SDS011;4597;48.730;9.114;2022-09-09T12:52:05;1.50;;;1.00;;
9124;SDS011;4597;48.730;9.114;2022-09-09T12:54:35;1.53;;;0.93;;
9124;SDS011;4597;48.730;9.114;2022-09-09T12:57:01;2.00;;;1.00;;
9124;SDS011;4597;48.730;9.114;2022-09-09T12:59:35;1.57;;;1.13;;
9124;SDS011;4597;48.730;9.114;2022-09-09T13:02:11;1.40;;;1.30;;
9124;SDS011;4597;48.730;9.114;2022-09-09T13:04:42;1.67;;;0.97;;
9124;SDS011;4597;48.730;9.114;2022-09-09T13:07:09;0.90;;;0.80;;
9124;SDS011;4597;48.730;9.114;2022-09-09T13:09:36;2.57;;;1.00;;
9124;SDS011;4597;48.730;9.114;2022-09-09T13:12:02;1.47;;;1.10;;
9124;SDS011;4597;48.730;9.114;2022-09-09T13:14:34;0.97;;;0.90;;
9124;SDS011;4597;48.730;9.114;2022-09-09T13:17:03;2.17;;;0.90;;
9124;SDS011;4597;48.730;9.114;2022-09-09T13:19:31;1.13;;;1.00;;
9124;SDS011;4597;48.730;9.114;2022-09-09T13:22:11;1.77;;;1.07;;
9124;SDS011;4597;48.730;9.114;2022-09-09T13:24:45;0.97;;;0.73;;
9124;SDS011;4597;48.730;9.114;2022-09-09T13:27:24;1.80;;;0.90;;
9124;SDS011;4597;48.730;9.114;2022-09-09T13:29:54;1.70;;;1.10;;
9124;SDS011;4597;48.730;9.114;2022-09-09T13:32:21;1.60;;;0.80;;
9124;SDS011;4597;48.730;9.114;2022-09-09T13:34:54;0.80;;;0.80;;
9124;SDS011;4597;48.730;9.114;2022-09-09T13:37:23;3.10;;;0.90;;
9124;SDS011;4597;48.730;9.114;2022-09-09T13:39:59;0.90;;;0.90;;
9124;SDS011;4597;48.730;9.114;2022-09-09T13:42:28;1.97;;;0.90;;
9124;SDS011;4597;48.730;9.114;2022-09-09T13:44:56;0.90;;;0.87;;
9124;SDS011;4597;48.730;9.114;2022-09-09T13:47:41;1.07;;;0.73;;
9124;SDS011;4597;48.730;9.114;2022-09-09T13:50:20;1.10;;;1.02;;
9124;SDS011;4597;48.730;9.114;2022-09-09T13:52:48;1.80;;;1.15;;
9124;SDS011;4597;48.730;9.114;2022-09-09T13:55:18;1.10;;;0.68;;
9124;SDS011;4597;48.730;9.114;2022-09-09T13:57:51;0.80;;;0.80;;
9124;SDS011;4597;48.730;9.114;2022-09-09T14:00:22;2.42;;;0.90;;
9124;SDS011;4597;48.730;9.114;2022-09-09T14:02:49;1.38;;;1.13;;
9124;SDS011;4597;48.730;9.114;2022-09-09T14:05:14;0.90;;;0.90;;
9124;SDS011;4597;48.730;9.114;2022-09-09T14:07:41;1.80;;;0.85;;
9124;SDS011;4597;48.730;9.114;2022-09-09T14:10:08;1.13;;;1.00;;
9124;SDS011;4597;48.730;9.114;2022-09-09T14:12:34;2.43;;;0.97;;
9124;SDS011;4597;48.730;9.114;2022-09-09T14:15:01;1.02;;;0.95;;
9124;SDS011;4597;48.730;9.114;2022-09-09T14:17:27;1.67;;;1.10;;
9124;SDS011;4597;48.730;9.114;2022-09-09T14:19:56;1.33;;;0.88;;
9124;SDS011;4597;48.730;9.114;2022-09-09T14:22:22;0.93;;;0.93;;
9124;SDS011;4597;48.730;9.114;2022-09-09T14:24:48;0.70;;;0.70;;
9124;SDS011;4597;48.730;9.114;2022-09-09T14:27:16;2.63;;;1.10;;
9124;SDS011;4597;48.730;9.114;2022-09-09T14:29:43;2.57;;;1.30;;
9124;SDS011;4597;48.730;9.114;2022-09-09T14:32:10;1.13;;;1.03;;
9124;SDS011;4597;48.730;9.114;2022-09-09T14:34:36;0.97;;;0.80;;
9124;SDS011;4597;48.730;9.114;2022-09-09T14:37:01;2.80;;;1.00;;
9124;SDS011;4597;48.730;9.114;2022-09-09T14:39:27;1.50;;;0.80;;
9124;SDS011;4597;48.730;9.114;2022-09-09T14:41:53;1.57;;;1.00;;
9124;SDS011;4597;48.730;9.114;2022-09-09T14:44:18;1.60;;;1.50;;
9124;SDS011;4597;48.730;9.114;2022-09-09T14:46:44;1.43;;;1.07;;
9124;SDS011;4597;48.730;9.114;2022-09-09T14:49:09;2.37;;;1.07;;
9124;SDS011;4597;48.730;9.114;2022-09-09T14:51:38;1.60;;;1.50;;
9124;SDS011;4597;48.730;9.114;2022-09-09T14:54:03;1.50;;;0.80;;
9124;SDS011;4597;48.730;9.114;2022-09-09T14:56:30;0.60;;;0.60;;
9124;SDS011;4597;48.730;9.114;2022-09-09T14:58:59;1.50;;;0.90;;
9124;SDS011;4597;48.730;9.114;2022-09-09T15:01:26;0.90;;;0.90;;
9124;SDS011;4597;48.730;9.114;2022-09-09T15:03:53;1.47;;;0.70;;
9124;SDS011;4597;48.730;9.114;2022-09-09T15:06:20;0.93;;;0.90;;
9124;SDS011;4597;48.730;9.114;2022-09-09T15:08:47;0.80;;;0.80;;
9124;SDS011;4597;48.730;9.114;2022-09-09T15:11:13;2.57;;;0.93;;
9124;SDS011;4597;48.730;9.114;2022-09-09T15:13:40;1.60;;;0.80;;
9124;SDS011;4597;48.730;9.114;2022-09-09T15:16:10;1.90;;;0.90;;
9124;SDS011;4597;48.730;9.114;2022-09-09T15:18:40;0.80;;;0.80;;
9124;SDS011;4597;48.730;9.114;2022-09-09T15:21:08;1.33;;;0.80;;
9124;SDS011;4597;48.730;9.114;2022-09-09T15:23:38;1.20;;;1.00;;
9124;SDS011;4597;48.730;9.114;2022-09-09T15:26:04;1.23;;;0.90;;
9124;SDS011;4597;48.730;9.114;2022-09-09T15:28:33;1.67;;;1.30;;
9124;SDS011;4597;48.730;9.114;2022-09-09T15:31:06;1.13;;;1.00;;
9124;SDS011;4597;48.730;9.114;2022-09-09T15:33:34;0.97;;;0.97;;
9124;SDS011;4597;48.730;9.114;2022-09-09T15:36:12;0.90;;;0.90;;
9124;SDS011;4597;48.730;9.114;2022-09-09T15:38:47;1.40;;;0.70;;
9124;SDS011;4597;48.730;9.114;2022-09-09T15:41:14;2.23;;;1.10;;
9124;SDS011;4597;48.730;9.114;2022-09-09T15:43:44;1.67;;;0.93;;
9124;SDS011;4597;48.730;9.114;2022-09-09T15:48:42;1.40;;;0.90;;
9124;SDS011;4597;48.730;9.114;2022-09-09T15:51:13;2.22;;;0.98;;
9124;SDS011;4597;48.730;9.114;2022-09-09T15:53:39;5.70;;;1.67;;
9124;SDS011;4597;48.730;9.114;2022-09-09T15:56:05;4.67;;;2.33;;
9124;SDS011;4597;48.730;9.114;2022-09-09T15:58:31;2.37;;;1.43;;
9124;SDS011;4597;48.730;9.114;2022-09-09T16:01:04;1.63;;;1.13;;
9124;SDS011;4597;48.730;9.114;2022-09-09T16:03:35;2.57;;;0.90;;
9124;SDS011;4597;48.730;9.114;2022-09-09T16:06:02;3.07;;;1.40;;
9124;SDS011;4597;48.730;9.114;2022-09-09T16:08:36;2.63;;;1.10;;
9124;SDS011;4597;48.730;9.114;2022-09-09T16:11:04;1.97;;;0.90;;
9124;SDS011;4597;48.730;9.114;2022-09-09T16:13:35;1.37;;;0.83;;
9124;SDS011;4597;48.730;9.114;2022-09-09T16:16:01;0.60;;;0.60;;
9124;SDS011;4597;48.730;9.114;2022-09-09T16:19:12;1.33;;;0.60;;
9124;SDS011;4597;48.730;9.114;2022-09-09T16:21:21;0.80;;;0.50;;
9124;SDS011;4597;48.730;9.114;2022-09-09T16:23:49;0.50;;;0.50;;
9124;SDS011;4597;48.730;9.114;2022-09-09T16:26:16;1.10;;;0.80;;
9124;SDS011;4597;48.730;9.114;2022-09-09T16:28:42;0.67;;;0.50;;
9124;SDS011;4597;48.730;9.114;2022-09-09T16:31:09;0.50;;;0.50;;
9124;SDS011;4597;48.730;9.114;2022-09-09T16:33:38;0.80;;;0.63;;
9124;SDS011;4597;48.730;9.114;2022-09-09T16:36:08;0.57;;;0.40;;
9124;SDS011;4597;48.730;9.114;2022-09-09T16:38:35;2.70;;;1.00;;
9124;SDS011;4597;48.730;9.114;2022-09-09T16:41:02;1.50;;;0.70;;
9124;SDS011;4597;48.730;9.114;2022-09-09T16:43:30;1.17;;;0.60;;
9124;SDS011;4597;48.730;9.114;2022-09-09T16:45:56;3.87;;;1.17;;
9124;SDS011;4597;48.730;9.114;2022-09-09T16:48:22;0.60;;;0.60;;
9124;SDS011;4597;48.730;9.114;2022-09-09T16:50:47;1.33;;;0.57;;
9124;SDS011;4597;48.730;9.114;2022-09-09T16:53:13;0.60;;;0.60;;
9124;SDS011;4597;48.730;9.114;2022-09-09T16:55:40;0.90;;;0.67;;
9124;SDS011;4597;48.730;9.114;2022-09-09T16:58:06;1.33;;;0.63;;
9124;SDS011;4597;48.730;9.114;2022-09-09T17:00:33;1.63;;;0.70;;
9124;SDS011;4597;48.730;9.114;2022-09-09T17:02:59;0.60;;;0.60;;
9124;SDS011;4597;48.730;9.114;2022-09-09T17:05:25;1.57;;;0.87;;
9124;SDS011;4597;48.730;9.114;2022-09-09T17:07:50;1.90;;;0.93;;
9124;SDS011;4597;48.730;9.114;2022-09-09T17:10:16;1.20;;;0.80;;
9124;SDS011;4597;48.730;9.114;2022-09-09T17:12:42;1.07;;;0.80;;
9124;SDS011;4597;48.730;9.114;2022-09-09T17:15:07;0.70;;;0.70;;
9124;SDS011;4597;48.730;9.114;2022-09-09T17:17:33;0.80;;;0.80;;
9124;SDS011;4597;48.730;9.114;2022-09-09T17:19:59;0.97;;;0.97;;
9124;SDS011;4597;48.730;9.114;2022-09-09T17:22:27;0.70;;;0.70;;
9124;SDS011;4597;48.730;9.114;2022-09-09T17:24:53;1.10;;;0.70;;
9124;SDS011;4597;48.730;9.114;2022-09-09T17:27:19;1.80;;;0.60;;
9124;SDS011;4597;48.730;9.114;2022-09-09T17:29:45;1.90;;;1.00;;
9124;SDS011;4597;48.730;9.114;2022-09-09T17:32:10;0.60;;;0.60;;
9124;SDS011;4597;48.730;9.114;2022-09-09T17:34:36;1.20;;;1.10;;